Strona główna
METAR-TAF:

METAR-TAF

Lotnisko :

Port lotniczy Użhorod

Użhorod, Ukraina

Szerokość geograficzna: 48-38-05N, Długość geograficzna: 022-15-53E, wysokość: 117 m

Aktualna obserwacja pogody

Raport powstał 9 godziny i 39 minut temu, godzina 15:00 UTC
Wiatr 6 kt od południowy zachód
Temperatura 22°C
Wilgotność 29%
Ciśnienie 1016 hPa
Widzialność 10 km lub więcej

METAR: UKLU 121500Z 23003MPS 9999 NSC 22/03 Q1016 NOSIG

czas: 03:39 (00:39 UTC)

Prognoza

Raport powstał 10 godziny i 37 minut temu, godzina 14:02 UTC
Prognoza ważna od 12 godzina 15 UTC do 12 godzina 24 UTC
Wiatr 10 kt od południowy zachód
Widzialność 10 km lub więcej

TAF: UKLU 121402Z 1215/1224 22005MPS 9999 NSC

Obserwacja i prognoza pogody dla ponad 4000 lotnisk (raport METAR i TAF).

Dostępne stacje oznaczono żółtymi i czerwonymi punktami na mapie.

Najedź kursorem aby zobaczyć nazwę stacji.

Kliknij aby zobaczyć obserwacje i prognozy pogody.

Aby zmienić mapę: kliknij na zielony przycisk z czarnym krzyżykiem, aby powiększyć; na zielony przycisk z myślnikiem, aby pomniejszyć; na zielone strzałki, aby przejść do map sąsiednich.


METAR-TAF: